createdAt,value
2022-11-26T00:01:17.957Z,6.30
2022-11-26T00:03:45.048Z,6.40
2022-11-26T00:06:36.736Z,6.40
2022-11-26T00:09:06.133Z,6.40
2022-11-26T00:11:33.150Z,6.40
2022-11-26T00:13:59.867Z,6.30
2022-11-26T00:16:28.137Z,6.30
2022-11-26T00:18:54.814Z,6.20
2022-11-26T00:21:24.589Z,6.10
2022-11-26T00:23:52.570Z,6.10
2022-11-26T00:26:24.342Z,6.00
2022-11-26T00:28:55.177Z,6.00
2022-11-26T00:31:22.051Z,5.90
2022-11-26T00:33:48.799Z,5.80
2022-11-26T00:36:28.956Z,5.90
2022-11-26T00:39:07.900Z,5.90
2022-11-26T00:41:38.191Z,6.00
2022-11-26T00:44:16.723Z,6.00
2022-11-26T00:46:43.301Z,6.00
2022-11-26T00:49:09.848Z,5.90
2022-11-26T00:51:36.986Z,5.80
2022-11-26T00:54:04.399Z,5.80
2022-11-26T00:56:36.611Z,5.80
2022-11-26T00:59:04.833Z,5.70
2022-11-26T01:01:32.809Z,5.60
2022-11-26T01:03:59.699Z,5.60
2022-11-26T01:06:34.332Z,5.60
2022-11-26T01:09:01.621Z,5.60
2022-11-26T01:11:28.246Z,5.70
2022-11-26T01:13:55.662Z,5.70
2022-11-26T01:16:26.126Z,5.60
2022-11-26T01:18:55.387Z,5.60
2022-11-26T01:21:23.516Z,5.50
2022-11-26T01:23:50.306Z,5.50
2022-11-26T01:26:19.349Z,5.50
2022-11-26T01:28:46.086Z,5.50
2022-11-26T01:31:23.953Z,5.60
2022-11-26T01:33:50.713Z,5.60
2022-11-26T01:36:28.490Z,5.50
2022-11-26T01:39:00.788Z,5.40
2022-11-26T01:42:10.341Z,5.30
2022-11-26T01:44:37.591Z,5.30
2022-11-26T01:47:40.105Z,5.30
2022-11-26T01:50:28.532Z,5.40
2022-11-26T01:53:06.347Z,5.40
2022-11-26T01:55:44.447Z,5.30
2022-11-26T01:58:15.030Z,5.30
2022-11-26T02:00:42.255Z,5.20
2022-11-26T02:03:09.576Z,5.30
2022-11-26T02:05:42.447Z,5.30
2022-11-26T02:08:10.769Z,5.30
2022-11-26T02:10:37.643Z,5.30
2022-11-26T02:13:05.131Z,5.40
2022-11-26T02:15:39.838Z,5.40
2022-11-26T02:18:08.727Z,5.30
2022-11-26T02:20:46.967Z,5.40
2022-11-26T02:23:38.589Z,5.30
2022-11-26T02:26:22.121Z,5.40
2022-11-26T02:29:29.752Z,5.50
2022-11-26T02:32:05.383Z,5.70
2022-11-26T02:34:58.410Z,5.70
2022-11-26T02:37:37.580Z,5.80
2022-11-26T02:40:05.540Z,5.70
2022-11-26T02:42:34.548Z,5.70
2022-11-26T02:45:06.260Z,5.60
2022-11-26T02:47:34.719Z,5.60
2022-11-26T02:50:06.988Z,5.60
2022-11-26T02:52:35.179Z,5.50
2022-11-26T02:55:05.122Z,5.50
2022-11-26T02:57:32.991Z,5.50
2022-11-26T02:59:59.831Z,5.40
2022-11-26T03:02:33.676Z,5.40
2022-11-26T03:05:03.105Z,5.40
2022-11-26T03:07:32.137Z,5.40
2022-11-26T03:10:00.986Z,5.40
2022-11-26T03:12:28.185Z,5.40
2022-11-26T03:14:54.959Z,5.30
2022-11-26T03:17:21.508Z,5.30
2022-11-26T03:19:48.114Z,5.30
2022-11-26T03:22:15.241Z,5.30
2022-11-26T03:24:42.375Z,5.30
2022-11-26T03:27:09.060Z,5.30
2022-11-26T03:29:35.716Z,5.20
2022-11-26T03:32:02.466Z,5.20
2022-11-26T03:34:29.103Z,5.10
2022-11-26T03:36:55.786Z,5.10
2022-11-26T03:39:22.448Z,5.10
2022-11-26T03:41:49.041Z,5.10
2022-11-26T03:44:16.174Z,5.10
2022-11-26T03:46:42.860Z,5.20
2022-11-26T03:49:09.474Z,5.10
2022-11-26T03:51:36.271Z,5.00
2022-11-26T03:54:02.920Z,5.00
2022-11-26T03:56:29.523Z,4.90
2022-11-26T03:58:56.143Z,4.80
2022-11-26T04:01:22.882Z,4.70
2022-11-26T04:03:49.594Z,4.70
2022-11-26T04:06:16.285Z,4.70
2022-11-26T04:08:42.912Z,4.60
2022-11-26T04:11:09.554Z,4.60
2022-11-26T04:13:36.329Z,4.50
2022-11-26T04:16:02.950Z,4.50
2022-11-26T04:18:29.567Z,4.50
2022-11-26T04:20:56.175Z,4.40
2022-11-26T04:23:22.862Z,4.40
2022-11-26T04:25:49.563Z,4.40
2022-11-26T04:28:16.227Z,4.30
2022-11-26T04:30:43.694Z,4.30
2022-11-26T04:33:10.550Z,4.20
2022-11-26T04:35:38.052Z,4.20
2022-11-26T04:38:04.704Z,4.10
2022-11-26T04:40:31.645Z,4.10
2022-11-26T04:42:58.409Z,4.00
2022-11-26T04:45:25.082Z,4.00
2022-11-26T04:47:52.000Z,4.00
2022-11-26T04:50:19.106Z,4.00
2022-11-26T04:52:48.383Z,4.10
2022-11-26T04:55:16.289Z,4.10
2022-11-26T04:57:42.969Z,4.10
2022-11-26T05:00:11.117Z,4.20
2022-11-26T05:02:37.764Z,4.10
2022-11-26T05:05:04.633Z,4.10
2022-11-26T05:07:31.284Z,4.10
2022-11-26T05:09:57.904Z,4.10
2022-11-26T05:12:24.482Z,4.10
2022-11-26T05:14:51.146Z,4.00
2022-11-26T05:17:17.933Z,4.00
2022-11-26T05:19:44.555Z,4.10
2022-11-26T05:22:11.315Z,4.10
2022-11-26T05:24:38.331Z,4.20
2022-11-26T05:27:05.161Z,4.20
2022-11-26T05:29:32.768Z,4.20
2022-11-26T05:31:59.490Z,4.30
2022-11-26T05:34:26.330Z,4.30
2022-11-26T05:36:52.960Z,4.20
2022-11-26T05:39:19.592Z,4.30
2022-11-26T05:41:46.275Z,4.20
2022-11-26T05:44:12.935Z,4.20
2022-11-26T05:46:42.131Z,4.20
2022-11-26T05:49:09.229Z,4.20
2022-11-26T05:51:36.000Z,4.20
2022-11-26T05:54:02.645Z,4.10
2022-11-26T05:56:29.196Z,4.10
2022-11-26T05:58:55.770Z,4.10
2022-11-26T06:01:22.506Z,4.00
2022-11-26T06:03:49.234Z,4.10
2022-11-26T06:06:15.920Z,4.10
2022-11-26T06:08:42.549Z,4.10
2022-11-26T06:11:12.731Z,4.00
2022-11-26T06:13:39.643Z,4.00
2022-11-26T06:16:06.701Z,4.00
2022-11-26T06:18:33.406Z,3.90
2022-11-26T06:21:01.415Z,3.90
2022-11-26T06:23:28.073Z,3.90
2022-11-26T06:25:54.813Z,3.90
2022-11-26T06:28:21.369Z,3.90
2022-11-26T06:30:54.721Z,4.00
2022-11-26T06:33:21.299Z,4.00
2022-11-26T06:35:47.891Z,4.10
2022-11-26T06:38:14.569Z,4.00
2022-11-26T06:40:41.121Z,4.10
2022-11-26T06:43:07.718Z,4.10
2022-11-26T06:45:34.950Z,4.00
2022-11-26T06:48:01.590Z,3.90
2022-11-26T06:50:28.204Z,3.90
2022-11-26T06:52:56.073Z,4.00
2022-11-26T06:55:22.910Z,3.90
2022-11-26T06:57:53.224Z,3.90
2022-11-26T07:00:20.127Z,3.90
2022-11-26T07:02:46.712Z,3.90
2022-11-26T07:05:13.308Z,4.00
2022-11-26T07:07:40.133Z,4.00
2022-11-26T07:10:07.752Z,4.00
2022-11-26T07:12:34.339Z,4.00
2022-11-26T07:15:00.914Z,4.00
2022-11-26T07:17:28.694Z,4.10
2022-11-26T07:19:55.220Z,4.10
2022-11-26T07:22:21.825Z,4.10
2022-11-26T07:24:48.366Z,4.20
2022-11-26T07:27:14.938Z,4.30
2022-11-26T07:29:43.653Z,4.40
2022-11-26T07:32:10.996Z,4.60
2022-11-26T07:34:40.947Z,4.70
2022-11-26T07:37:07.784Z,4.80
2022-11-26T07:39:34.362Z,4.90
2022-11-26T07:42:00.971Z,4.90
2022-11-26T07:44:27.560Z,4.90
2022-11-26T07:46:54.173Z,5.00
2022-11-26T07:49:20.794Z,5.00
2022-11-26T07:51:47.398Z,5.00
2022-11-26T07:54:13.934Z,4.90
2022-11-26T07:56:40.540Z,5.00
2022-11-26T07:59:07.198Z,5.00
2022-11-26T08:01:33.895Z,5.00
2022-11-26T08:04:05.249Z,5.10
2022-11-26T08:06:32.712Z,5.00
2022-11-26T08:09:00.387Z,5.00
2022-11-26T08:11:29.605Z,5.00
2022-11-26T08:14:04.729Z,5.10
2022-11-26T08:16:32.609Z,5.10
2022-11-26T08:19:02.515Z,5.10
2022-11-26T08:21:29.037Z,5.30
2022-11-26T08:23:56.259Z,5.40
2022-11-26T08:26:32.670Z,5.60
2022-11-26T08:29:01.581Z,5.90
2022-11-26T08:31:28.545Z,6.00
2022-11-26T08:33:59.595Z,6.40
2022-11-26T08:36:30.566Z,6.60
2022-11-26T08:38:59.527Z,6.80
2022-11-26T08:41:26.388Z,6.50
2022-11-26T08:44:08.898Z,6.70
2022-11-26T08:46:38.037Z,6.60
2022-11-26T08:49:06.121Z,6.80
2022-11-26T08:51:33.356Z,7.00
2022-11-26T08:53:59.896Z,7.30
2022-11-26T08:56:26.629Z,7.90
2022-11-26T08:58:53.246Z,8.40
2022-11-26T09:01:22.484Z,8.80
2022-11-26T09:03:53.788Z,8.60
2022-11-26T09:06:24.554Z,8.70
2022-11-26T09:09:10.118Z,8.90
2022-11-26T09:11:58.589Z,9.20
2022-11-26T09:14:28.558Z,9.30
2022-11-26T09:16:56.662Z,9.20
2022-11-26T09:19:24.238Z,9.30
2022-11-26T09:21:50.884Z,9.50
2022-11-26T09:24:17.886Z,9.40
2022-11-26T09:26:44.826Z,9.00
2022-11-26T09:29:16.919Z,8.90
2022-11-26T09:32:07.474Z,9.70
2022-11-26T09:34:31.572Z,9.90
2022-11-26T09:36:58.239Z,9.50
2022-11-26T09:39:24.884Z,9.40
2022-11-26T09:42:28.149Z,9.00
2022-11-26T09:45:03.016Z,9.00
2022-11-26T09:47:39.766Z,9.20
2022-11-26T09:50:06.335Z,9.40
2022-11-26T09:52:58.957Z,9.50
2022-11-26T09:55:36.567Z,9.10
2022-11-26T09:58:29.603Z,9.30
2022-11-26T10:00:58.497Z,9.60
2022-11-26T10:03:29.853Z,9.30
2022-11-26T10:06:18.402Z,9.10
2022-11-26T10:09:07.378Z,9.40
2022-11-26T10:12:03.334Z,10.00
2022-11-26T10:15:06.762Z,10.00
2022-11-26T10:18:13.726Z,9.50
2022-11-26T10:20:59.565Z,9.20
2022-11-26T10:23:35.719Z,9.20
2022-11-26T10:26:16.662Z,9.50
2022-11-26T10:28:52.435Z,9.50
2022-11-26T10:31:27.768Z,9.40
2022-11-26T10:34:02.001Z,9.50
2022-11-26T10:36:42.191Z,9.40
2022-11-26T10:39:14.159Z,9.40
2022-11-26T10:41:40.980Z,9.40
2022-11-26T10:44:29.685Z,9.40
2022-11-26T10:46:57.218Z,9.30
2022-11-26T10:49:24.983Z,9.40
2022-11-26T10:51:55.438Z,9.50
2022-11-26T10:54:26.979Z,9.90
2022-11-26T10:56:54.930Z,10.00
2022-11-26T10:59:34.203Z,10.20
2022-11-26T11:02:20.185Z,10.50
2022-11-26T11:04:50.576Z,11.30
2022-11-26T11:07:42.741Z,11.30
2022-11-26T11:10:09.427Z,11.40
2022-11-26T11:12:40.851Z,11.10
2022-11-26T11:15:24.251Z,10.70
2022-11-26T11:18:21.825Z,10.10
2022-11-26T11:20:55.491Z,10.10
2022-11-26T11:23:52.676Z,10.00
2022-11-26T11:26:23.876Z,10.10
2022-11-26T11:28:55.481Z,10.20
2022-11-26T11:31:24.448Z,10.30
2022-11-26T11:33:52.720Z,10.50
2022-11-26T11:36:26.933Z,10.80
2022-11-26T11:39:01.692Z,10.90
2022-11-26T11:41:46.245Z,11.10
2022-11-26T11:44:20.464Z,11.00
2022-11-26T11:47:25.299Z,10.90
2022-11-26T11:50:13.853Z,10.80
2022-11-26T11:53:02.111Z,10.80
2022-11-26T11:55:51.591Z,10.60
2022-11-26T11:58:38.084Z,10.40
2022-11-26T12:01:16.613Z,10.30
2022-11-26T12:04:08.910Z,10.40
2022-11-26T12:06:58.335Z,10.60
2022-11-26T12:09:36.699Z,10.70
2022-11-26T12:12:12.050Z,10.70
2022-11-26T12:15:02.451Z,10.60
2022-11-26T12:17:33.376Z,10.60
2022-11-26T12:20:29.678Z,10.60
2022-11-26T12:23:37.758Z,10.50
2022-11-26T12:26:12.148Z,10.50
2022-11-26T12:28:52.842Z,10.40
2022-11-26T12:31:33.022Z,10.70
2022-11-26T12:34:12.716Z,10.80
2022-11-26T12:36:50.955Z,10.60
2022-11-26T12:39:38.631Z,10.50
2022-11-26T12:42:15.616Z,10.50
2022-11-26T12:44:46.237Z,10.60
2022-11-26T12:47:34.625Z,10.60
2022-11-26T12:50:21.149Z,10.30
2022-11-26T12:52:58.618Z,10.00
2022-11-26T12:55:30.430Z,10.10
2022-11-26T12:58:16.008Z,10.00
2022-11-26T13:00:43.416Z,10.10
2022-11-26T13:03:16.262Z,9.90
2022-11-26T13:06:06.413Z,10.10
2022-11-26T13:09:00.919Z,10.20
2022-11-26T13:11:48.860Z,10.20
2022-11-26T13:14:43.165Z,10.10
2022-11-26T13:17:16.224Z,10.00
2022-11-26T13:20:09.085Z,9.90
2022-11-26T13:23:02.887Z,9.70
2022-11-26T13:25:35.192Z,9.70
2022-11-26T13:28:34.328Z,9.70
2022-11-26T13:31:32.960Z,9.60
2022-11-26T13:34:28.794Z,9.70
2022-11-26T13:37:31.647Z,9.70
2022-11-26T13:40:46.487Z,9.60
2022-11-26T13:43:53.650Z,9.60
2022-11-26T13:46:30.853Z,9.60
2022-11-26T13:49:19.353Z,9.60
2022-11-26T13:51:52.343Z,9.70
2022-11-26T13:54:30.198Z,9.70
2022-11-26T13:57:08.093Z,9.70
2022-11-26T13:59:36.642Z,9.90
2022-11-26T14:02:37.282Z,9.90
2022-11-26T14:05:08.080Z,9.90
2022-11-26T14:07:34.890Z,10.30
2022-11-26T14:10:04.940Z,10.70
2022-11-26T14:13:02.788Z,11.10
2022-11-26T14:15:41.553Z,11.10
2022-11-26T14:18:13.444Z,10.90
2022-11-26T14:21:01.404Z,10.80
2022-11-26T14:23:48.886Z,10.50
2022-11-26T14:26:28.707Z,10.30
2022-11-26T14:29:07.461Z,10.20
2022-11-26T14:31:36.366Z,10.20
2022-11-26T14:34:23.124Z,10.00
2022-11-26T14:37:01.227Z,9.90
2022-11-26T14:39:29.109Z,9.90
2022-11-26T14:42:05.247Z,10.10
2022-11-26T14:44:34.391Z,10.20
2022-11-26T14:47:09.353Z,10.10
2022-11-26T14:49:39.357Z,9.80
2022-11-26T14:52:28.589Z,9.60
2022-11-26T14:54:58.864Z,9.50
2022-11-26T14:57:46.071Z,9.30
2022-11-26T15:00:12.583Z,9.30
2022-11-26T15:02:41.454Z,9.20
2022-11-26T15:05:20.917Z,9.20
2022-11-26T15:08:01.147Z,9.10
2022-11-26T15:10:31.909Z,9.00
2022-11-26T15:13:04.330Z,9.00
2022-11-26T15:15:30.999Z,8.90
2022-11-26T15:18:05.778Z,8.80
2022-11-26T15:20:33.708Z,8.80
2022-11-26T15:23:02.841Z,8.70
2022-11-26T15:25:33.265Z,8.60
2022-11-26T15:28:03.976Z,8.50
2022-11-26T15:30:37.936Z,8.50
2022-11-26T15:33:07.677Z,8.40
2022-11-26T15:35:36.236Z,8.40
2022-11-26T15:38:20.219Z,8.40
2022-11-26T15:41:07.713Z,8.30
2022-11-26T15:43:45.920Z,8.30
2022-11-26T15:46:12.584Z,8.20
2022-11-26T15:48:52.732Z,8.20
2022-11-26T15:51:35.795Z,8.20
2022-11-26T15:54:06.069Z,8.10
2022-11-26T15:56:34.632Z,8.10
2022-11-26T15:59:05.686Z,8.00
2022-11-26T16:01:35.461Z,8.00
2022-11-26T16:04:06.074Z,8.00
2022-11-26T16:06:39.195Z,8.00
2022-11-26T16:09:16.165Z,8.00
2022-11-26T16:11:57.642Z,7.90
2022-11-26T16:14:36.259Z,7.90
2022-11-26T16:17:15.205Z,7.90
2022-11-26T16:19:52.694Z,7.80
2022-11-26T16:22:25.423Z,7.80
2022-11-26T16:25:07.147Z,7.80
2022-11-26T16:27:34.450Z,7.80
2022-11-26T16:30:06.912Z,7.80
2022-11-26T16:32:33.510Z,7.70
2022-11-26T16:35:12.237Z,7.70
2022-11-26T16:37:46.644Z,7.70
2022-11-26T16:40:18.893Z,7.70
2022-11-26T16:42:46.678Z,7.70
2022-11-26T16:45:13.859Z,7.70
2022-11-26T16:48:22.278Z,7.70
2022-11-26T16:50:49.110Z,7.60
2022-11-26T16:53:15.707Z,7.60
2022-11-26T16:55:42.333Z,7.60
2022-11-26T16:58:44.042Z,7.60
2022-11-26T17:01:10.682Z,7.60
2022-11-26T17:03:37.446Z,7.50
2022-11-26T17:06:25.439Z,7.50
2022-11-26T17:08:54.862Z,7.50
2022-11-26T17:11:21.544Z,7.50
2022-11-26T17:13:48.138Z,7.40
2022-11-26T17:16:23.745Z,7.40
2022-11-26T17:18:50.638Z,7.30
2022-11-26T17:21:17.350Z,7.30
2022-11-26T17:23:43.916Z,7.30
2022-11-26T17:26:22.306Z,7.20
2022-11-26T17:28:50.334Z,7.20
2022-11-26T17:31:17.608Z,7.20
2022-11-26T17:33:44.327Z,7.10
2022-11-26T17:36:20.819Z,7.10
2022-11-26T17:38:48.356Z,7.10
2022-11-26T17:41:15.851Z,7.00
2022-11-26T17:43:44.035Z,7.00
2022-11-26T17:46:15.377Z,7.00
2022-11-26T17:48:42.101Z,6.90
2022-11-26T17:51:11.127Z,6.90
2022-11-26T17:53:37.761Z,6.80
2022-11-26T17:56:04.610Z,6.80
2022-11-26T17:58:31.180Z,6.80
2022-11-26T18:00:58.025Z,6.70
2022-11-26T18:03:24.638Z,6.70
2022-11-26T18:05:51.282Z,6.70
2022-11-26T18:08:19.070Z,6.70
2022-11-26T18:10:46.795Z,6.70
2022-11-26T18:13:13.345Z,6.70
2022-11-26T18:15:39.979Z,6.70
2022-11-26T18:18:07.414Z,6.60
2022-11-26T18:20:34.078Z,6.60
2022-11-26T18:23:00.998Z,6.60
2022-11-26T18:25:28.900Z,6.60
2022-11-26T18:27:56.617Z,6.60
2022-11-26T18:30:24.555Z,6.60
2022-11-26T18:32:51.241Z,6.60
2022-11-26T18:35:18.150Z,6.60
2022-11-26T18:37:44.929Z,6.50
2022-11-26T18:40:14.751Z,6.50
2022-11-26T18:42:41.458Z,6.50
2022-11-26T18:45:11.347Z,6.40
2022-11-26T18:47:38.161Z,6.40
2022-11-26T18:50:05.691Z,6.40
2022-11-26T18:52:32.338Z,6.40
2022-11-26T18:54:59.922Z,6.40
2022-11-26T18:57:26.515Z,6.40
2022-11-26T18:59:53.071Z,6.40
2022-11-26T19:02:19.728Z,6.40
2022-11-26T19:04:46.448Z,6.40
2022-11-26T19:07:14.213Z,6.40
2022-11-26T19:09:41.448Z,6.40
2022-11-26T19:12:08.430Z,6.40
2022-11-26T19:14:35.147Z,6.40
2022-11-26T19:17:01.718Z,6.40
2022-11-26T19:19:28.416Z,6.30
2022-11-26T19:22:01.076Z,6.30
2022-11-26T19:24:28.601Z,6.30
2022-11-26T19:26:55.172Z,6.30
2022-11-26T19:29:21.958Z,6.30
2022-11-26T19:31:48.561Z,6.30
2022-11-26T19:34:15.990Z,6.30
2022-11-26T19:36:43.029Z,6.30
2022-11-26T19:39:09.748Z,6.20
2022-11-26T19:41:36.348Z,6.30
2022-11-26T19:44:05.298Z,6.30
2022-11-26T19:46:32.158Z,6.20
2022-11-26T19:48:58.833Z,6.20
2022-11-26T19:51:26.786Z,6.20
2022-11-26T19:53:55.279Z,6.20
2022-11-26T19:56:30.135Z,6.20
2022-11-26T19:59:02.914Z,6.10
2022-11-26T20:01:32.045Z,6.10
2022-11-26T20:04:00.842Z,6.10
2022-11-26T20:06:28.558Z,6.10
2022-11-26T20:08:56.103Z,6.10
2022-11-26T20:11:22.852Z,6.10
2022-11-26T20:13:50.194Z,6.00
2022-11-26T20:16:25.682Z,6.00
2022-11-26T20:18:53.034Z,6.00
2022-11-26T20:21:25.948Z,6.00
2022-11-26T20:23:54.139Z,6.00
2022-11-26T20:26:39.028Z,6.00
2022-11-26T20:29:09.176Z,6.00
2022-11-26T20:31:39.852Z,5.90
2022-11-26T20:34:06.558Z,5.90
2022-11-26T20:36:33.264Z,5.90
2022-11-26T20:39:01.715Z,5.80
2022-11-26T20:41:29.167Z,5.80
2022-11-26T20:43:59.189Z,5.80
2022-11-26T20:46:27.472Z,5.80
2022-11-26T20:48:54.911Z,5.80
2022-11-26T20:51:22.329Z,5.80
2022-11-26T20:53:51.062Z,5.80
2022-11-26T20:56:19.598Z,5.80
2022-11-26T20:58:46.463Z,5.70
2022-11-26T21:01:21.794Z,5.80
2022-11-26T21:03:51.837Z,5.80
2022-11-26T21:06:25.955Z,5.80
2022-11-26T21:08:57.431Z,5.70
2022-11-26T21:11:24.488Z,5.70
2022-11-26T21:13:51.087Z,5.70
2022-11-26T21:16:19.064Z,5.70
2022-11-26T21:18:46.769Z,5.70
2022-11-26T21:21:17.337Z,5.80
2022-11-26T21:23:45.454Z,5.70
2022-11-26T21:26:16.595Z,5.70
2022-11-26T21:28:43.475Z,5.70
2022-11-26T21:31:23.108Z,5.70
2022-11-26T21:33:58.845Z,5.70
2022-11-26T21:36:26.339Z,5.70
2022-11-26T21:38:53.259Z,5.70
2022-11-26T21:41:20.809Z,5.70
2022-11-26T21:43:48.649Z,5.70
2022-11-26T21:46:24.206Z,5.70
2022-11-26T21:48:54.711Z,5.70
2022-11-26T21:51:22.804Z,5.60
2022-11-26T21:53:50.116Z,5.60
2022-11-26T21:56:17.795Z,5.60
2022-11-26T21:58:44.947Z,5.70
2022-11-26T22:01:16.558Z,5.60
2022-11-26T22:03:45.673Z,5.60
2022-11-26T22:06:13.219Z,5.60
2022-11-26T22:08:40.382Z,5.60
2022-11-26T22:11:11.817Z,5.60
2022-11-26T22:13:39.602Z,5.60
2022-11-26T22:16:07.633Z,5.70
2022-11-26T22:18:42.233Z,5.60
2022-11-26T22:21:14.652Z,5.60
2022-11-26T22:23:41.239Z,5.70
2022-11-26T22:26:07.899Z,5.70
2022-11-26T22:28:35.114Z,5.70
2022-11-26T22:31:17.947Z,5.70
2022-11-26T22:33:45.202Z,5.80
2022-11-26T22:36:12.408Z,5.80
2022-11-26T22:38:40.159Z,5.80
2022-11-26T22:41:09.612Z,5.90
2022-11-26T22:43:36.647Z,5.90
2022-11-26T22:46:09.248Z,5.90
2022-11-26T22:48:36.104Z,5.90
2022-11-26T22:51:03.033Z,5.90
2022-11-26T22:53:29.733Z,5.90
2022-11-26T22:55:58.442Z,5.90
2022-11-26T22:58:26.878Z,5.90
2022-11-26T23:00:58.764Z,6.00
2022-11-26T23:05:56.467Z,5.90
2022-11-26T23:08:23.023Z,5.90
2022-11-26T23:10:49.708Z,5.90
2022-11-26T23:13:17.141Z,5.90
2022-11-26T23:15:45.657Z,6.00
2022-11-26T23:18:15.024Z,6.00
2022-11-26T23:20:42.897Z,5.90
2022-11-26T23:23:09.901Z,6.00
2022-11-26T23:25:40.682Z,5.90
2022-11-26T23:28:09.559Z,5.90
2022-11-26T23:30:36.463Z,5.90
2022-11-26T23:33:03.231Z,5.90
2022-11-26T23:35:29.785Z,5.90
2022-11-26T23:37:58.339Z,6.00
2022-11-26T23:40:24.937Z,5.90
2022-11-26T23:42:51.535Z,5.80
2022-11-26T23:45:18.217Z,5.80
2022-11-26T23:47:44.829Z,5.80
2022-11-26T23:50:11.922Z,5.80
2022-11-26T23:52:38.527Z,5.90
2022-11-26T23:55:05.438Z,5.90
2022-11-26T23:57:32.006Z,5.80
2022-11-26T23:59:58.596Z,5.80
